createdAt,value
2019-03-28T00:00:10.134Z,18.98
2019-03-28T00:01:18.272Z,22.62
2019-03-28T00:02:24.625Z,19.73
2019-03-28T00:03:30.582Z,19.30
2019-03-28T00:04:35.353Z,17.17
2019-03-28T00:05:39.819Z,18.25
2019-03-28T00:06:44.284Z,19.65
2019-03-28T00:07:48.767Z,20.62
2019-03-28T00:08:54.081Z,18.92
2019-03-28T00:09:58.664Z,19.02
2019-03-28T00:11:03.459Z,19.77
2019-03-28T00:12:07.937Z,18.92
2019-03-28T00:13:12.419Z,20.62
2019-03-28T00:14:17.176Z,19.87
2019-03-28T00:15:21.647Z,19.75
2019-03-28T00:16:26.185Z,22.40
2019-03-28T00:17:31.045Z,20.68
2019-03-28T00:18:35.535Z,20.55
2019-03-28T00:19:41.073Z,20.70
2019-03-28T00:20:45.533Z,20.43
2019-03-28T00:21:49.991Z,20.60
2019-03-28T00:23:05.232Z,20.10
2019-03-28T00:24:27.727Z,18.82
2019-03-28T00:25:32.200Z,18.98
2019-03-28T00:26:36.658Z,20.95
2019-03-28T00:27:41.412Z,20.43
2019-03-28T00:28:45.902Z,22.22
2019-03-28T00:29:50.363Z,20.27
2019-03-28T00:30:54.837Z,19.45
2019-03-28T00:31:59.306Z,18.98
2019-03-28T00:33:03.774Z,20.45
2019-03-28T00:34:08.257Z,19.65
2019-03-28T00:35:13.038Z,21.30
2019-03-28T00:36:17.503Z,20.95
2019-03-28T00:37:21.967Z,20.77
2019-03-28T00:38:26.449Z,21.70
2019-03-28T00:39:30.903Z,21.10
2019-03-28T00:40:35.705Z,23.02
2019-03-28T00:41:40.162Z,22.45
2019-03-28T00:42:44.633Z,23.20
2019-03-28T00:43:49.113Z,26.27
2019-03-28T00:44:53.574Z,24.30
2019-03-28T00:45:58.037Z,23.67
2019-03-28T00:47:02.509Z,22.60
2019-03-28T00:48:06.978Z,23.18
2019-03-28T00:49:11.460Z,25.23
2019-03-28T00:50:16.418Z,25.25
2019-03-28T00:51:20.893Z,23.40
2019-03-28T00:52:25.354Z,23.15
2019-03-28T00:53:31.213Z,26.45
2019-03-28T00:54:35.647Z,23.95
2019-03-28T00:55:40.116Z,23.70
2019-03-28T00:56:47.351Z,24.30
2019-03-28T00:57:50.742Z,23.55
2019-03-28T00:58:55.222Z,23.85
2019-03-28T00:59:59.690Z,24.27
2019-03-28T01:01:05.112Z,23.90
2019-03-28T01:02:09.661Z,24.98
2019-03-28T01:03:14.274Z,23.73
2019-03-28T01:04:18.753Z,23.30
2019-03-28T01:05:23.311Z,24.55
2019-03-28T01:06:27.758Z,25.20
2019-03-28T01:07:32.508Z,24.63
2019-03-28T01:08:36.977Z,26.42
2019-03-28T01:09:41.843Z,24.98
2019-03-28T01:10:46.734Z,25.70
2019-03-28T01:11:51.645Z,24.98
2019-03-28T01:12:56.112Z,25.77
2019-03-28T01:14:00.610Z,25.35
2019-03-28T01:15:07.114Z,26.77
2019-03-28T01:16:11.579Z,25.68
2019-03-28T01:17:16.399Z,23.55
2019-03-28T01:18:21.937Z,27.67
2019-03-28T01:19:26.433Z,24.12
2019-03-28T01:20:30.878Z,26.85
2019-03-28T01:21:35.660Z,27.10
2019-03-28T01:22:40.105Z,26.65
2019-03-28T01:23:44.550Z,25.82
2019-03-28T01:24:49.300Z,27.60
2019-03-28T01:25:54.127Z,26.93
2019-03-28T01:26:58.927Z,27.67
2019-03-28T01:28:03.692Z,26.10
2019-03-28T01:29:09.125Z,28.12
2019-03-28T01:30:13.636Z,27.60
2019-03-28T01:31:18.081Z,27.07
2019-03-28T01:32:22.527Z,29.27
2019-03-28T01:33:27.276Z,28.17
2019-03-28T01:34:31.739Z,28.57
2019-03-28T01:35:36.260Z,26.27
2019-03-28T01:36:41.020Z,25.65
2019-03-28T01:37:45.465Z,25.80
2019-03-28T01:38:49.927Z,27.10
2019-03-28T01:39:54.732Z,26.65
2019-03-28T01:40:59.469Z,29.80
2019-03-28T01:42:04.270Z,25.55
2019-03-28T01:43:08.705Z,27.37
2019-03-28T01:44:13.173Z,28.07
2019-03-28T01:45:17.620Z,25.72
2019-03-28T01:46:22.064Z,26.30
2019-03-28T01:47:26.507Z,26.93
2019-03-28T01:48:30.962Z,26.97
2019-03-28T01:49:35.426Z,26.45
2019-03-28T01:50:39.868Z,25.10
2019-03-28T01:51:44.674Z,24.02
2019-03-28T01:52:49.139Z,23.50
2019-03-28T01:53:53.607Z,24.67
2019-03-28T01:54:58.091Z,27.22
2019-03-28T01:56:02.550Z,26.23
2019-03-28T01:57:11.331Z,25.05
2019-03-28T01:58:13.509Z,24.72
2019-03-28T01:59:17.952Z,24.47
2019-03-28T02:00:22.415Z,23.98
2019-03-28T02:01:27.232Z,25.52
2019-03-28T02:02:31.681Z,23.12
2019-03-28T02:03:36.130Z,21.23
2019-03-28T02:04:40.885Z,22.32
2019-03-28T02:05:45.322Z,21.00
2019-03-28T02:06:49.766Z,19.07
2019-03-28T02:07:54.211Z,21.55
2019-03-28T02:08:58.655Z,24.35
2019-03-28T02:10:03.540Z,22.67
2019-03-28T02:11:09.074Z,25.70
2019-03-28T02:12:13.542Z,25.45
2019-03-28T02:13:18.017Z,23.95
2019-03-28T02:14:22.478Z,24.05
2019-03-28T02:15:27.338Z,23.85
2019-03-28T02:16:31.807Z,22.13
2019-03-28T02:17:36.776Z,21.68
2019-03-28T02:18:41.686Z,23.20
2019-03-28T02:19:46.162Z,22.58
2019-03-28T02:20:51.034Z,23.77
2019-03-28T02:21:55.861Z,22.10
2019-03-28T02:23:00.691Z,23.30
2019-03-28T02:24:05.446Z,24.12
2019-03-28T02:25:10.619Z,24.18
2019-03-28T02:26:15.431Z,23.65
2019-03-28T02:27:24.234Z,23.52
2019-03-28T02:28:26.358Z,23.50
2019-03-28T02:29:31.798Z,23.80
2019-03-28T02:30:36.348Z,22.42
2019-03-28T02:31:40.827Z,25.62
2019-03-28T02:32:45.296Z,24.07
2019-03-28T02:33:50.042Z,25.15
2019-03-28T02:34:54.521Z,23.77
2019-03-28T02:35:59.057Z,25.35
2019-03-28T02:37:03.530Z,22.48
2019-03-28T02:38:08.095Z,20.57
2019-03-28T02:39:12.535Z,18.52
2019-03-28T02:40:17.375Z,20.23
2019-03-28T02:41:21.837Z,20.82
2019-03-28T02:42:27.757Z,19.82
2019-03-28T02:43:32.525Z,18.35
2019-03-28T02:44:37.531Z,21.42
2019-03-28T02:45:42.362Z,20.92
2019-03-28T02:46:46.831Z,20.72
2019-03-28T02:47:51.294Z,20.57
2019-03-28T02:48:55.769Z,22.65
2019-03-28T02:50:00.496Z,20.77
2019-03-28T02:51:05.092Z,20.00
2019-03-28T02:52:09.557Z,20.92
2019-03-28T02:53:14.052Z,22.30
2019-03-28T02:54:19.459Z,22.32
2019-03-28T02:55:24.049Z,19.77
2019-03-28T02:56:28.485Z,19.52
2019-03-28T02:57:40.933Z,22.07
2019-03-28T02:58:39.097Z,20.95
2019-03-28T02:59:43.570Z,22.60
2019-03-28T03:00:48.518Z,22.93
2019-03-28T03:01:53.109Z,17.92
2019-03-28T03:02:57.582Z,16.40
2019-03-28T03:04:02.049Z,19.35
2019-03-28T03:05:08.729Z,19.23
2019-03-28T03:06:13.564Z,20.97
2019-03-28T03:07:18.376Z,21.30
2019-03-28T03:08:22.844Z,20.45
2019-03-28T03:09:27.309Z,18.73
2019-03-28T03:10:31.787Z,22.93
2019-03-28T03:11:36.249Z,20.02
2019-03-28T03:12:40.715Z,20.37
2019-03-28T03:13:45.899Z,19.77
2019-03-28T03:14:51.758Z,18.60
2019-03-28T03:15:56.915Z,21.55
2019-03-28T03:17:01.694Z,19.70
2019-03-28T03:18:06.204Z,17.07
2019-03-28T03:19:10.651Z,18.60
2019-03-28T03:20:15.184Z,18.85
2019-03-28T03:21:19.674Z,17.92
2019-03-28T03:22:24.517Z,19.60
2019-03-28T03:23:28.985Z,17.70
2019-03-28T03:24:33.449Z,19.67
2019-03-28T03:25:38.267Z,19.62
2019-03-28T03:26:42.728Z,20.52
2019-03-28T03:27:57.618Z,19.02
2019-03-28T03:28:53.359Z,17.48
2019-03-28T03:29:57.857Z,19.45
2019-03-28T03:31:02.307Z,18.75
2019-03-28T03:32:06.775Z,20.02
2019-03-28T03:33:11.256Z,19.50
2019-03-28T03:34:15.724Z,19.15
2019-03-28T03:35:20.203Z,18.80
2019-03-28T03:36:24.695Z,21.62
2019-03-28T03:37:29.918Z,22.37
2019-03-28T03:38:34.599Z,21.33
2019-03-28T03:39:39.767Z,24.40
2019-03-28T03:40:44.537Z,22.77
2019-03-28T03:41:49.430Z,21.02
2019-03-28T03:42:53.946Z,20.45
2019-03-28T03:43:58.405Z,21.10
2019-03-28T03:45:03.237Z,19.65
2019-03-28T03:46:08.016Z,19.48
2019-03-28T03:47:12.486Z,22.07
2019-03-28T03:48:16.948Z,21.65
2019-03-28T03:49:21.412Z,22.42
2019-03-28T03:50:28.044Z,17.95
2019-03-28T03:51:32.506Z,21.33
2019-03-28T03:52:36.972Z,21.70
2019-03-28T03:53:41.439Z,21.20
2019-03-28T03:54:45.896Z,21.87
2019-03-28T03:55:50.365Z,22.60
2019-03-28T03:56:55.171Z,21.85
2019-03-28T03:58:14.479Z,22.35
2019-03-28T03:59:05.806Z,21.25
2019-03-28T04:00:10.623Z,19.60
2019-03-28T04:01:15.107Z,21.52
2019-03-28T04:02:19.574Z,21.85
2019-03-28T04:03:24.037Z,23.73
2019-03-28T04:04:28.497Z,22.50
2019-03-28T04:05:33.399Z,25.17
2019-03-28T04:06:37.894Z,22.07
2019-03-28T04:07:42.357Z,22.70
2019-03-28T04:08:46.843Z,22.58
2019-03-28T04:09:51.673Z,21.87
2019-03-28T04:10:56.218Z,20.90
2019-03-28T04:12:00.713Z,23.18
2019-03-28T04:13:05.176Z,20.43
2019-03-28T04:14:09.931Z,20.88
2019-03-28T04:15:15.068Z,22.80
2019-03-28T04:16:19.560Z,20.43
2019-03-28T04:17:24.026Z,21.55
2019-03-28T04:18:28.797Z,19.52
2019-03-28T04:19:33.261Z,20.65
2019-03-28T04:20:37.718Z,18.42
2019-03-28T04:21:42.207Z,20.17
2019-03-28T04:22:46.962Z,19.87
2019-03-28T04:23:51.437Z,20.90
2019-03-28T04:24:56.293Z,22.75
2019-03-28T04:26:01.754Z,20.75
2019-03-28T04:27:06.213Z,19.20
2019-03-28T04:28:10.672Z,18.05
2019-03-28T04:29:15.460Z,19.32
2019-03-28T04:30:19.937Z,18.87
2019-03-28T04:31:24.403Z,18.67
2019-03-28T04:32:28.882Z,18.12
2019-03-28T04:33:33.347Z,18.95
2019-03-28T04:34:38.114Z,19.45
2019-03-28T04:35:42.577Z,19.02
2019-03-28T04:36:47.066Z,19.05
2019-03-28T04:37:57.248Z,19.00
2019-03-28T04:39:01.684Z,21.12
2019-03-28T04:40:08.509Z,23.65
2019-03-28T04:41:13.699Z,20.35
2019-03-28T04:42:18.192Z,20.77
2019-03-28T04:43:23.726Z,19.05
2019-03-28T04:44:28.247Z,19.17
2019-03-28T04:45:33.119Z,19.42
2019-03-28T04:46:37.880Z,18.45
2019-03-28T04:47:43.744Z,19.82
2019-03-28T04:48:50.648Z,19.73
2019-03-28T04:49:54.360Z,18.15
2019-03-28T04:50:58.818Z,20.08
2019-03-28T04:52:03.889Z,20.17
2019-03-28T04:53:08.516Z,19.37
2019-03-28T04:54:12.970Z,23.25
2019-03-28T04:55:17.584Z,19.52
2019-03-28T04:56:22.213Z,23.12
2019-03-28T04:57:26.911Z,23.77
2019-03-28T04:58:43.763Z,21.40
2019-03-28T04:59:37.993Z,20.72
2019-03-28T05:00:42.456Z,21.77
2019-03-28T05:01:59.699Z,21.62
2019-03-28T05:02:53.102Z,24.52
2019-03-28T05:03:57.625Z,21.42
2019-03-28T05:05:02.082Z,22.73
2019-03-28T05:06:06.855Z,22.40
2019-03-28T05:07:11.484Z,24.27
2019-03-28T05:08:16.712Z,24.30
2019-03-28T05:09:21.306Z,23.25
2019-03-28T05:10:25.756Z,22.82
2019-03-28T05:11:30.215Z,23.50
2019-03-28T05:12:34.810Z,24.65
2019-03-28T05:13:39.617Z,22.73
2019-03-28T05:14:44.419Z,27.15
2019-03-28T05:15:48.994Z,26.20
2019-03-28T05:16:53.447Z,28.40
2019-03-28T05:17:57.928Z,28.57
2019-03-28T05:19:02.444Z,27.87
2019-03-28T05:20:07.547Z,31.55
2019-03-28T05:21:12.100Z,33.85
2019-03-28T05:22:16.853Z,34.50
2019-03-28T05:23:21.334Z,33.88
2019-03-28T05:24:25.800Z,33.88
2019-03-28T05:25:30.266Z,37.13
2019-03-28T05:26:35.528Z,41.73
2019-03-28T05:27:41.806Z,35.75
2019-03-28T05:28:56.979Z,37.40
2019-03-28T05:29:52.516Z,36.48
2019-03-28T05:30:58.637Z,39.03
2019-03-28T05:32:03.433Z,37.53
2019-03-28T05:33:08.728Z,40.17
2019-03-28T05:34:13.175Z,41.18
2019-03-28T05:35:18.066Z,45.98
2019-03-28T05:36:22.578Z,41.23
2019-03-28T05:37:30.016Z,46.28
2019-03-28T05:47:35.153Z,38.95
2019-03-28T05:48:39.960Z,41.53
2019-03-28T05:49:44.414Z,39.92
2019-03-28T05:50:49.166Z,38.98
2019-03-28T05:51:53.702Z,40.40
2019-03-28T05:52:58.187Z,42.15
2019-03-28T05:54:02.663Z,40.08
2019-03-28T05:55:07.963Z,43.63
2019-03-28T05:56:12.432Z,37.55
2019-03-28T05:57:17.298Z,36.90
2019-03-28T05:58:22.110Z,40.78
2019-03-28T05:59:26.566Z,36.55
2019-03-28T06:00:31.049Z,36.68
2019-03-28T06:01:35.507Z,32.85
2019-03-28T06:02:39.976Z,31.62
2019-03-28T06:03:44.455Z,30.35
2019-03-28T06:04:49.216Z,32.38
2019-03-28T06:05:53.842Z,32.83
2019-03-28T06:06:58.303Z,32.03
2019-03-28T06:08:03.132Z,32.85
2019-03-28T06:09:07.979Z,30.48
2019-03-28T06:10:16.206Z,29.67
2019-03-28T06:11:19.727Z,27.20
2019-03-28T06:12:25.259Z,26.85
2019-03-28T06:13:29.741Z,23.73
2019-03-28T06:14:34.502Z,25.32
2019-03-28T06:15:41.061Z,24.55
2019-03-28T06:16:45.125Z,23.95
2019-03-28T06:17:49.588Z,20.77
2019-03-28T06:18:54.400Z,20.08
2019-03-28T06:19:59.225Z,20.97
2019-03-28T06:21:03.710Z,18.90
2019-03-28T06:22:08.167Z,20.35
2019-03-28T06:23:13.344Z,17.32
2019-03-28T06:24:18.205Z,19.57
2019-03-28T06:25:22.954Z,17.98
2019-03-28T06:26:27.708Z,20.60
2019-03-28T06:27:32.178Z,15.95
2019-03-28T06:28:36.649Z,16.73
2019-03-28T06:29:41.105Z,49.25
2019-03-28T06:30:45.580Z,124.33
2019-03-28T06:31:55.628Z,52.33
2019-03-28T06:32:58.728Z,22.65
2019-03-28T06:34:02.528Z,14.93
2019-03-28T06:35:06.992Z,14.50
2019-03-28T06:36:11.743Z,14.73
2019-03-28T06:37:16.219Z,13.78
2019-03-28T06:38:22.086Z,15.30
2019-03-28T06:39:26.560Z,14.75
2019-03-28T06:40:31.432Z,12.37
2019-03-28T06:41:36.062Z,13.78
2019-03-28T06:42:40.523Z,12.70
2019-03-28T06:43:45.355Z,12.07
2019-03-28T06:44:49.806Z,13.62
2019-03-28T06:45:54.583Z,13.35
2019-03-28T06:46:59.366Z,12.15
2019-03-28T06:48:04.129Z,11.83
2019-03-28T06:49:08.610Z,13.03
2019-03-28T06:50:13.312Z,14.15
2019-03-28T06:51:17.771Z,12.45
2019-03-28T06:52:22.226Z,12.58
2019-03-28T06:53:26.979Z,13.38
2019-03-28T06:54:31.471Z,12.78
2019-03-28T06:55:37.050Z,12.05
2019-03-28T06:56:41.582Z,11.83
2019-03-28T06:57:46.048Z,12.30
2019-03-28T06:58:50.507Z,11.93
2019-03-28T06:59:54.984Z,12.15
2019-03-28T07:00:59.613Z,11.25
2019-03-28T07:02:04.071Z,11.88
2019-03-28T07:03:08.535Z,10.60
2019-03-28T07:04:13.350Z,11.03
2019-03-28T07:05:18.092Z,11.18
2019-03-28T07:06:22.556Z,11.78
2019-03-28T07:07:27.011Z,9.05
2019-03-28T07:08:31.479Z,12.40
2019-03-28T07:09:35.956Z,12.10
2019-03-28T07:10:40.485Z,9.98
2019-03-28T07:11:45.242Z,9.68
2019-03-28T07:12:49.997Z,10.68
2019-03-28T07:13:54.453Z,9.78
2019-03-28T07:14:59.768Z,17.65
2019-03-28T07:16:04.664Z,17.27
2019-03-28T07:17:09.126Z,10.50
2019-03-28T07:18:13.886Z,10.05
2019-03-28T07:19:18.333Z,9.98
2019-03-28T07:20:23.183Z,10.72
2019-03-28T07:21:27.639Z,9.50
2019-03-28T07:22:32.089Z,10.70
2019-03-28T07:23:36.554Z,10.18
2019-03-28T07:24:41.339Z,9.70
2019-03-28T07:25:46.666Z,10.70
2019-03-28T07:26:51.557Z,10.88
2019-03-28T07:28:00.512Z,11.35
2019-03-28T07:29:06.876Z,10.53
2019-03-28T07:30:14.877Z,10.95
2019-03-28T07:31:19.673Z,9.58
2019-03-28T07:32:24.124Z,9.65
2019-03-28T07:33:28.581Z,10.95
2019-03-28T07:34:33.052Z,8.90
2019-03-28T07:35:37.892Z,12.03
2019-03-28T07:36:42.350Z,9.93
2019-03-28T07:37:47.160Z,9.83
2019-03-28T07:38:51.613Z,9.90
2019-03-28T07:39:56.403Z,10.08
2019-03-28T07:41:01.243Z,10.75
2019-03-28T07:42:05.702Z,11.40
2019-03-28T07:43:10.157Z,10.40
2019-03-28T07:44:14.681Z,9.25
2019-03-28T07:45:19.246Z,9.88
2019-03-28T07:46:23.708Z,9.30
2019-03-28T07:47:28.153Z,8.58
2019-03-28T07:48:32.607Z,10.00
2019-03-28T07:49:37.705Z,7.58
2019-03-28T07:50:42.824Z,8.78
2019-03-28T07:51:47.307Z,8.58
2019-03-28T07:52:52.073Z,10.40
2019-03-28T07:53:56.520Z,8.08
2019-03-28T07:55:00.975Z,8.40
2019-03-28T07:56:05.450Z,9.45
2019-03-28T07:57:10.236Z,7.92
2019-03-28T07:58:14.717Z,9.03
2019-03-28T07:59:19.167Z,9.20
2019-03-28T08:00:23.649Z,8.10
2019-03-28T08:01:28.105Z,8.90
2019-03-28T08:02:32.565Z,8.20
2019-03-28T08:03:39.940Z,9.78
2019-03-28T08:04:43.181Z,8.03
2019-03-28T08:05:47.666Z,11.05
2019-03-28T08:06:52.134Z,7.53
2019-03-28T08:07:56.587Z,6.40
2019-03-28T08:09:01.037Z,7.03
2019-03-28T08:10:08.917Z,7.03
2019-03-28T08:11:13.782Z,6.42
2019-03-28T08:12:22.965Z,7.40
2019-03-28T08:13:24.436Z,9.55
2019-03-28T08:14:28.889Z,10.23
2019-03-28T08:15:33.344Z,7.22
2019-03-28T08:16:37.818Z,8.85
2019-03-28T08:17:42.339Z,7.60
2019-03-28T08:18:46.806Z,7.22
2019-03-28T08:19:51.658Z,6.08
2019-03-28T08:20:56.134Z,6.85
2019-03-28T08:22:00.880Z,6.42
2019-03-28T08:23:05.334Z,6.12
2019-03-28T08:24:09.795Z,7.28
2019-03-28T08:25:15.498Z,5.83
2019-03-28T08:26:20.046Z,7.45
2019-03-28T08:27:24.508Z,8.00
2019-03-28T08:28:28.969Z,7.00
2019-03-28T08:29:33.434Z,6.20
2019-03-28T08:30:39.126Z,6.85
2019-03-28T08:31:45.687Z,6.72
2019-03-28T08:32:50.447Z,7.72
2019-03-28T08:33:55.232Z,8.05
2019-03-28T08:34:59.752Z,6.70
2019-03-28T08:36:04.573Z,5.42
2019-03-28T08:37:09.275Z,6.17
2019-03-28T08:38:14.108Z,6.55
2019-03-28T08:39:18.930Z,6.22
2019-03-28T08:40:39.151Z,6.40
2019-03-28T08:41:41.857Z,5.95
2019-03-28T08:42:46.319Z,7.30
2019-03-28T08:43:50.779Z,7.95
2019-03-28T08:44:55.238Z,7.12
2019-03-28T08:45:59.693Z,5.97
2019-03-28T08:47:06.199Z,7.25
2019-03-28T08:48:11.598Z,6.33
2019-03-28T08:49:16.527Z,8.85
2019-03-28T08:50:20.987Z,7.28
2019-03-28T08:51:32.780Z,7.05
2019-03-28T08:52:37.312Z,7.78
2019-03-28T08:53:41.772Z,6.83
2019-03-28T08:54:46.229Z,6.70
2019-03-28T08:55:51.160Z,6.22
2019-03-28T08:56:55.658Z,8.13
2019-03-28T08:58:00.189Z,7.30
2019-03-28T08:59:04.658Z,8.45
2019-03-28T09:00:11.413Z,7.05
2019-03-28T09:01:15.933Z,7.67
2019-03-28T09:02:20.808Z,8.40
2019-03-28T09:03:25.579Z,9.03
2019-03-28T09:04:30.036Z,7.05
2019-03-28T09:05:34.797Z,6.50
2019-03-28T09:06:39.280Z,6.58
2019-03-28T09:07:45.007Z,6.95
2019-03-28T09:08:49.475Z,6.75
2019-03-28T09:09:53.964Z,6.60
2019-03-28T09:10:58.407Z,8.45
2019-03-28T09:12:03.283Z,6.92
2019-03-28T09:13:07.725Z,5.47
2019-03-28T09:14:12.594Z,6.80
2019-03-28T09:15:17.190Z,9.80
2019-03-28T09:16:22.623Z,5.87
2019-03-28T09:17:27.104Z,6.17
2019-03-28T09:18:31.563Z,5.33
2019-03-28T09:19:38.832Z,6.35
2019-03-28T09:20:42.547Z,6.65
2019-03-28T09:21:47.019Z,5.85
2019-03-28T09:22:51.874Z,4.87
2019-03-28T09:23:56.333Z,4.95
2019-03-28T09:25:01.123Z,5.40
2019-03-28T09:26:05.575Z,5.47
2019-03-28T09:27:10.055Z,5.50
2019-03-28T09:28:14.522Z,5.05
2019-03-28T09:29:19.139Z,5.87
2019-03-28T09:30:48.232Z,6.78
2019-03-28T09:31:44.449Z,5.85
2019-03-28T09:32:48.924Z,5.50
2019-03-28T09:33:53.677Z,6.50
2019-03-28T09:34:59.012Z,5.80
2019-03-28T09:36:03.474Z,6.72
2019-03-28T09:37:07.949Z,5.12
2019-03-28T09:38:12.410Z,8.40
2019-03-28T09:39:16.876Z,5.70
2019-03-28T09:40:21.341Z,5.50
2019-03-28T09:41:25.798Z,5.72
2019-03-28T09:42:30.278Z,6.50
2019-03-28T09:43:35.580Z,4.10
2019-03-28T09:44:40.351Z,5.28
2019-03-28T09:45:44.826Z,6.20
2019-03-28T09:46:49.294Z,6.03
2019-03-28T09:47:53.835Z,5.20
2019-03-28T09:48:58.297Z,5.28
2019-03-28T09:50:03.221Z,5.17
2019-03-28T09:51:07.702Z,5.90
2019-03-28T09:52:12.551Z,5.55
2019-03-28T09:53:17.012Z,6.78
2019-03-28T09:54:21.886Z,6.58
2019-03-28T09:55:26.342Z,7.45
2019-03-28T09:56:30.810Z,5.15
2019-03-28T09:57:35.323Z,4.78
2019-03-28T09:58:39.973Z,6.12
2019-03-28T09:59:44.430Z,5.55
2019-03-28T10:01:02.144Z,19.05
2019-03-28T10:01:55.618Z,4.87
2019-03-28T10:03:00.093Z,5.60
2019-03-28T10:04:06.383Z,5.22
2019-03-28T10:05:11.305Z,4.53
2019-03-28T10:06:15.760Z,4.72
2019-03-28T10:07:20.557Z,5.12
2019-03-28T10:08:25.004Z,6.45
2019-03-28T10:09:29.468Z,5.33
2019-03-28T10:10:33.923Z,6.70
2019-03-28T10:11:38.388Z,6.40
2019-03-28T10:12:44.217Z,5.78
2019-03-28T10:13:48.799Z,5.75
2019-03-28T10:14:53.663Z,5.75
2019-03-28T10:15:58.127Z,6.00
2019-03-28T10:17:02.593Z,5.20
2019-03-28T10:18:07.080Z,6.17
2019-03-28T10:19:12.437Z,5.12
2019-03-28T10:20:16.990Z,6.85
2019-03-28T10:21:21.447Z,7.53
2019-03-28T10:22:26.287Z,5.20
2019-03-28T10:23:30.747Z,5.33
2019-03-28T10:24:35.205Z,4.53
2019-03-28T10:25:40.554Z,4.78
2019-03-28T10:26:45.102Z,6.65
2019-03-28T10:27:50.648Z,4.83
2019-03-28T10:28:55.102Z,6.20
2019-03-28T10:29:59.571Z,4.65
2019-03-28T10:31:15.774Z,5.42
2019-03-28T10:32:11.549Z,6.35
2019-03-28T10:33:16.421Z,6.92
2019-03-28T10:34:20.894Z,8.60
2019-03-28T10:35:28.284Z,5.35
2019-03-28T10:36:33.154Z,5.50
2019-03-28T10:37:37.630Z,5.75
2019-03-28T10:38:42.251Z,6.53
2019-03-28T10:39:46.723Z,5.17
2019-03-28T10:40:51.481Z,5.85
2019-03-28T10:41:56.320Z,6.55
2019-03-28T10:43:00.799Z,5.62
2019-03-28T10:44:05.246Z,6.25
2019-03-28T10:45:09.875Z,6.15
2019-03-28T10:46:14.337Z,6.42
2019-03-28T10:47:18.791Z,6.80
2019-03-28T10:48:23.631Z,6.67
2019-03-28T10:49:28.142Z,7.92
2019-03-28T10:50:40.777Z,5.90
2019-03-28T10:51:39.086Z,7.10
2019-03-28T10:52:43.836Z,6.85
2019-03-28T10:53:48.319Z,7.50
2019-03-28T10:54:53.128Z,7.92
2019-03-28T10:55:57.939Z,7.53
2019-03-28T10:57:13.012Z,7.28
2019-03-28T10:58:18.239Z,6.10
2019-03-28T10:59:23.327Z,9.48
2019-03-28T11:00:24.220Z,7.42
2019-03-28T11:01:46.981Z,6.55
2019-03-28T11:02:34.104Z,6.67
2019-03-28T11:03:38.907Z,7.08
2019-03-28T11:04:43.363Z,8.53
2019-03-28T11:05:47.832Z,6.35
2019-03-28T11:06:52.699Z,7.55
2019-03-28T11:07:57.169Z,7.85
2019-03-28T11:09:02.023Z,8.03
2019-03-28T11:10:09.094Z,6.45
2019-03-28T11:11:13.851Z,7.67
2019-03-28T11:12:18.306Z,6.05
2019-03-28T11:13:22.789Z,7.42
2019-03-28T11:14:27.623Z,7.03
2019-03-28T11:15:32.084Z,6.62
2019-03-28T11:16:36.536Z,6.65
2019-03-28T11:17:41.308Z,7.80
2019-03-28T11:18:46.124Z,7.20
2019-03-28T11:19:50.585Z,7.75
2019-03-28T11:20:55.054Z,7.97
2019-03-28T11:21:59.518Z,6.97
2019-03-28T11:23:03.985Z,6.28
2019-03-28T11:24:09.455Z,7.33
2019-03-28T11:25:13.982Z,6.40
2019-03-28T11:26:18.437Z,6.03
2019-03-28T11:27:23.543Z,5.12
2019-03-28T11:28:28.124Z,5.90
2019-03-28T11:29:33.154Z,5.65
2019-03-28T11:30:38.148Z,5.58
2019-03-28T11:32:48.834Z,4.72
2019-03-28T11:33:53.289Z,4.72
2019-03-28T11:34:57.768Z,5.35
2019-03-28T11:36:02.228Z,5.70
2019-03-28T11:37:11.322Z,4.12
2019-03-28T11:38:13.811Z,5.55
2019-03-28T11:39:18.316Z,7.67
2019-03-28T11:40:24.561Z,5.83
2019-03-28T11:41:29.123Z,7.80
2019-03-28T11:42:33.605Z,8.48
2019-03-28T11:42:35.417Z,6.78
2019-03-28T11:43:38.187Z,6.45
2019-03-28T11:44:43.022Z,7.22
2019-03-28T11:45:47.484Z,5.85
2019-03-28T11:46:51.944Z,5.55
2019-03-28T11:47:56.406Z,7.37
2019-03-28T11:49:01.173Z,9.18
2019-03-28T11:50:07.594Z,6.08
2019-03-28T11:51:12.451Z,6.78
2019-03-28T11:52:16.915Z,6.47
2019-03-28T11:53:21.380Z,7.17
2019-03-28T11:54:25.843Z,7.37
2019-03-28T11:55:30.322Z,7.92
2019-03-28T11:56:34.783Z,7.78
2019-03-28T11:57:39.266Z,5.58
2019-03-28T11:58:43.702Z,6.30
2019-03-28T11:59:48.184Z,8.55
2019-03-28T12:00:52.959Z,6.80
2019-03-28T12:02:00.458Z,6.45
2019-03-28T12:03:04.029Z,7.03
2019-03-28T12:04:08.516Z,13.45
2019-03-28T12:05:13.840Z,5.75
2019-03-28T12:06:18.296Z,6.65
2019-03-28T12:07:22.757Z,6.40
2019-03-28T12:08:27.614Z,8.08
2019-03-28T12:09:32.069Z,7.92
2019-03-28T12:10:36.552Z,7.85
2019-03-28T12:11:41.089Z,8.35
2019-03-28T12:12:45.555Z,8.25
2019-03-28T12:13:50.017Z,6.85
2019-03-28T12:14:54.488Z,6.55
2019-03-28T12:15:58.942Z,7.05
2019-03-28T12:17:03.411Z,5.95
2019-03-28T12:18:08.237Z,6.97
2019-03-28T12:19:12.707Z,7.22
2019-03-28T12:20:17.184Z,5.83
2019-03-28T12:21:21.644Z,7.60
2019-03-28T12:22:26.100Z,9.68
2019-03-28T12:23:30.555Z,7.58
2019-03-28T12:24:35.024Z,6.87
2019-03-28T12:25:39.503Z,8.40
2019-03-28T12:26:43.962Z,7.30
2019-03-28T12:27:48.426Z,10.93
2019-03-28T12:28:52.895Z,12.93
2019-03-28T12:29:57.359Z,12.93
2019-03-28T12:31:01.848Z,14.03
2019-03-28T12:32:13.806Z,7.40
2019-03-28T12:33:12.522Z,8.65
2019-03-28T12:34:17.276Z,6.22
2019-03-28T12:35:21.767Z,10.15
2019-03-28T12:36:26.511Z,5.58
2019-03-28T12:37:30.969Z,6.97
2019-03-28T12:38:35.428Z,7.72
2019-03-28T12:39:39.892Z,7.85
2019-03-28T12:40:44.369Z,9.48
2019-03-28T12:41:48.829Z,7.08
2019-03-28T12:42:53.297Z,21.55
2019-03-28T12:43:57.751Z,8.08
2019-03-28T12:45:02.230Z,7.25
2019-03-28T12:46:06.871Z,7.22
2019-03-28T12:47:11.612Z,9.90
2019-03-28T12:48:16.084Z,7.87
2019-03-28T12:49:20.550Z,18.07
2019-03-28T12:50:26.007Z,24.92
2019-03-28T12:51:30.787Z,15.03
2019-03-28T12:52:35.258Z,7.17
2019-03-28T12:53:39.730Z,8.50
2019-03-28T12:54:44.419Z,6.97
2019-03-28T12:55:49.014Z,7.05
2019-03-28T12:56:53.760Z,12.58
2019-03-28T12:57:58.233Z,10.82
2019-03-28T12:59:02.699Z,16.17
2019-03-28T13:00:09.241Z,16.48
2019-03-28T13:01:13.725Z,9.38
2019-03-28T13:02:28.624Z,25.52
2019-03-28T13:03:24.768Z,77.67
2019-03-28T13:04:29.240Z,11.20
2019-03-28T13:05:34.945Z,8.75
2019-03-28T13:06:39.568Z,7.47
2019-03-28T13:07:44.322Z,6.65
2019-03-28T13:08:48.794Z,21.82
2019-03-28T13:09:53.551Z,8.55
2019-03-28T13:10:58.033Z,6.87
2019-03-28T13:12:02.475Z,7.90
2019-03-28T13:13:07.386Z,7.47
2019-03-28T13:14:12.209Z,11.63
2019-03-28T13:15:16.683Z,6.92
2019-03-28T13:16:21.171Z,8.35
2019-03-28T13:17:25.938Z,12.40
2019-03-28T13:18:30.406Z,25.57
2019-03-28T13:19:34.872Z,22.67
2019-03-28T13:20:39.342Z,11.75
2019-03-28T13:21:43.826Z,14.50
2019-03-28T13:22:48.282Z,13.15
2019-03-28T13:23:52.750Z,14.58
2019-03-28T13:24:57.530Z,9.03
2019-03-28T13:26:02.006Z,5.08
2019-03-28T13:27:06.465Z,32.88
2019-03-28T13:28:10.919Z,5.10
2019-03-28T13:29:15.383Z,10.75
2019-03-28T13:30:20.179Z,7.75
2019-03-28T13:31:25.019Z,4.92
2019-03-28T13:32:41.014Z,5.33
2019-03-28T13:33:35.915Z,4.90
2019-03-28T13:34:40.744Z,5.30
2019-03-28T13:35:45.208Z,12.47
2019-03-28T13:36:49.692Z,8.13
2019-03-28T13:37:54.157Z,20.72
2019-03-28T13:38:58.620Z,8.50
2019-03-28T13:40:03.839Z,9.43
2019-03-28T13:41:08.598Z,14.23
2019-03-28T13:42:13.077Z,18.32
2019-03-28T13:43:17.531Z,7.37
2019-03-28T13:44:22.656Z,6.67
2019-03-28T13:45:27.229Z,37.10
2019-03-28T13:46:32.549Z,16.40
2019-03-28T13:47:37.131Z,15.65
2019-03-28T13:48:41.884Z,15.32
2019-03-28T13:49:46.350Z,9.65
2019-03-28T13:50:54.649Z,6.20
2019-03-28T13:51:57.961Z,14.85
2019-03-28T13:53:02.422Z,45.33
2019-03-28T13:54:06.887Z,17.87
2019-03-28T13:55:11.413Z,10.40
2019-03-28T13:56:16.212Z,20.70
2019-03-28T13:57:21.661Z,7.67
2019-03-28T13:58:26.340Z,11.05
2019-03-28T13:59:31.123Z,21.48
2019-03-28T14:00:37.033Z,6.83
2019-03-28T14:01:41.512Z,6.47
2019-03-28T14:02:56.998Z,8.88
2019-03-28T14:03:52.138Z,7.80
2019-03-28T14:04:56.590Z,6.58
2019-03-28T14:06:01.070Z,7.40
2019-03-28T14:07:05.834Z,6.67
2019-03-28T14:08:10.294Z,8.33
2019-03-28T14:09:14.755Z,8.98
2019-03-28T14:10:21.733Z,6.17
2019-03-28T14:11:25.400Z,14.47
2019-03-28T14:12:30.222Z,10.08
2019-03-28T14:13:34.677Z,32.83
2019-03-28T14:14:40.065Z,13.00
2019-03-28T14:15:44.756Z,10.80